createdAt,value
2022-10-25T00:01:30.642Z,100719.00
2022-10-25T00:04:32.561Z,100716.44
2022-10-25T00:07:34.067Z,100722.84
2022-10-25T00:10:36.848Z,100719.34
2022-10-25T00:13:38.609Z,100719.34
2022-10-25T00:16:40.176Z,100719.44
2022-10-25T00:19:41.676Z,100723.84
2022-10-25T00:22:43.543Z,100715.09
2022-10-25T00:25:45.373Z,100718.84
2022-10-25T00:28:47.181Z,100725.03
2022-10-25T00:31:48.775Z,100718.84
2022-10-25T00:34:50.376Z,100722.47
2022-10-25T00:37:52.351Z,100725.03
2022-10-25T00:40:53.895Z,100733.03
2022-10-25T00:44:32.858Z,100732.94
2022-10-25T00:47:43.401Z,100738.28
2022-10-25T00:50:47.491Z,100736.34
2022-10-25T00:53:50.116Z,100732.72
2022-10-25T00:56:53.270Z,100741.44
2022-10-25T00:59:54.951Z,100740.47
2022-10-25T01:06:05.412Z,100737.56
2022-10-25T01:09:10.487Z,100733.72
2022-10-25T01:12:12.161Z,100745.13
2022-10-25T01:15:13.841Z,100743.19
2022-10-25T01:18:21.813Z,100749.25
2022-10-25T01:21:50.165Z,100752.66
2022-10-25T01:24:51.656Z,100756.31
2022-10-25T01:28:11.777Z,100752.56
2022-10-25T01:31:26.571Z,100744.41
2022-10-25T01:34:43.568Z,100741.72
2022-10-25T01:37:48.269Z,100745.13
2022-10-25T01:41:10.981Z,100741.50
2022-10-25T01:44:15.539Z,100747.69
2022-10-25T01:47:33.114Z,100739.78
2022-10-25T01:50:41.111Z,100751.31
2022-10-25T01:53:50.715Z,100749.50
2022-10-25T01:57:46.663Z,100755.59
2022-10-25T02:01:08.976Z,100751.09
2022-10-25T02:04:27.241Z,100750.25
2022-10-25T02:07:38.680Z,100750.97
2022-10-25T02:11:07.665Z,100748.28
2022-10-25T02:14:40.123Z,100759.84
2022-10-25T02:17:49.648Z,100758.03
2022-10-25T02:20:53.765Z,100758.03
2022-10-25T02:23:58.325Z,100762.41
2022-10-25T02:27:02.696Z,100757.94
2022-10-25T02:30:05.555Z,100763.28
2022-10-25T02:33:07.162Z,100761.47
2022-10-25T02:36:20.447Z,100770.34
2022-10-25T02:39:27.636Z,100770.19
2022-10-25T02:42:32.032Z,100779.94
2022-10-25T02:45:33.570Z,100780.88
2022-10-25T02:48:35.591Z,100785.28
2022-10-25T02:51:37.134Z,100792.31
2022-10-25T02:54:38.711Z,100781.63
2022-10-25T02:57:40.249Z,100778.00
2022-10-25T03:00:42.316Z,100781.53
2022-10-25T03:03:44.357Z,100785.88
2022-10-25T03:06:45.896Z,100789.31
2022-10-25T03:09:47.408Z,100780.53
2022-10-25T03:12:49.356Z,100778.94
2022-10-25T03:15:51.152Z,100786.97
2022-10-25T03:18:52.670Z,100794.97
2022-10-25T03:21:54.210Z,100786.97
2022-10-25T03:24:55.790Z,100797.66
2022-10-25T03:28:00.483Z,100803.00
2022-10-25T03:31:02.070Z,100795.84
2022-10-25T03:34:03.560Z,100803.00
2022-10-25T03:37:05.168Z,100796.81
2022-10-25T03:40:07.318Z,100799.50
2022-10-25T03:43:08.942Z,100796.69
2022-10-25T03:46:10.583Z,100794.03
2022-10-25T03:49:12.129Z,100804.00
2022-10-25T03:52:13.762Z,100815.63
2022-10-25T03:55:15.576Z,100815.63
2022-10-25T03:58:17.447Z,100814.69
2022-10-25T04:01:19.256Z,100812.97
2022-10-25T04:04:21.120Z,100817.56
2022-10-25T04:07:22.651Z,100817.56
2022-10-25T04:10:25.302Z,100822.06
2022-10-25T04:13:28.140Z,100824.81
2022-10-25T04:16:29.694Z,100823.97
2022-10-25T04:19:31.209Z,100823.13
2022-10-25T04:22:33.345Z,100833.81
2022-10-25T04:25:34.962Z,100832.84
2022-10-25T04:28:36.525Z,100837.34
2022-10-25T04:31:38.069Z,100831.13
2022-10-25T04:34:39.796Z,100837.22
2022-10-25T04:37:41.307Z,100831.91
2022-10-25T04:40:42.816Z,100844.28
2022-10-25T04:43:44.684Z,100837.13
2022-10-25T04:46:48.655Z,100835.94
2022-10-25T04:49:50.738Z,100840.19
2022-10-25T04:52:52.248Z,100845.53
2022-10-25T04:56:02.135Z,100834.84
2022-10-25T04:59:03.693Z,100848.34
2022-10-25T05:02:05.597Z,100845.66
2022-10-25T05:05:07.409Z,100848.25
2022-10-25T05:08:08.909Z,100850.84
2022-10-25T05:11:12.335Z,100851.91
2022-10-25T05:14:15.117Z,100857.25
2022-10-25T05:17:16.699Z,100851.16
2022-10-25T05:20:18.224Z,100862.13
2022-10-25T05:23:20.032Z,100863.94
2022-10-25T05:26:21.954Z,100867.56
2022-10-25T05:29:23.510Z,100866.59
2022-10-25T05:32:25.162Z,100877.41
2022-10-25T05:35:26.756Z,100867.69
2022-10-25T05:38:31.129Z,100873.88
2022-10-25T05:41:37.147Z,100874.84
2022-10-25T05:44:38.989Z,100876.66
2022-10-25T05:47:40.529Z,100883.84
2022-10-25T05:53:50.996Z,100891.75
2022-10-25T05:56:52.553Z,100888.13
2022-10-25T05:59:54.085Z,100896.13
2022-10-25T06:02:55.656Z,100886.16
2022-10-25T06:06:05.249Z,100895.88
2022-10-25T06:09:08.668Z,100899.53
2022-10-25T06:12:10.301Z,100908.50
2022-10-25T06:15:11.789Z,100900.50
2022-10-25T06:18:13.357Z,100904.16
2022-10-25T06:21:21.764Z,100913.00
2022-10-25T06:24:23.401Z,100913.84
2022-10-25T06:27:27.800Z,100916.66
2022-10-25T06:33:36.276Z,100927.34
2022-10-25T06:36:37.784Z,100929.03
2022-10-25T06:39:39.334Z,100928.09
2022-10-25T06:42:40.917Z,100935.97
2022-10-25T06:45:42.841Z,100940.38
2022-10-25T06:48:44.377Z,100954.59
2022-10-25T06:51:45.933Z,100955.53
2022-10-25T06:54:47.482Z,100957.38
2022-10-25T06:57:48.980Z,100959.81
2022-10-25T07:00:50.561Z,100967.25
2022-10-25T07:03:56.753Z,100970.66
2022-10-25T07:06:59.293Z,100975.06
2022-10-25T07:10:00.863Z,100981.25
2022-10-25T07:13:02.418Z,100986.59
2022-10-25T07:16:05.836Z,100987.44
2022-10-25T07:19:07.490Z,100991.97
2022-10-25T07:22:09.070Z,100989.28
2022-10-25T07:25:10.589Z,100990.00
2022-10-25T07:28:12.335Z,100995.34
2022-10-25T07:31:22.728Z,101001.94
2022-10-25T07:34:24.326Z,101006.34
2022-10-25T07:37:25.848Z,101005.25
2022-10-25T07:40:27.422Z,101013.03
2022-10-25T07:43:29.375Z,101021.91
2022-10-25T07:46:30.931Z,101013.78
2022-10-25T07:49:32.491Z,101018.16
2022-10-25T07:52:33.983Z,101024.22
2022-10-25T07:55:35.568Z,101029.47
2022-10-25T07:58:37.100Z,101037.59
2022-10-25T08:01:38.705Z,101033.97
2022-10-25T08:04:40.256Z,101040.19
2022-10-25T08:07:41.765Z,101043.69
2022-10-25T08:10:44.179Z,101052.47
2022-10-25T08:13:49.013Z,101048.72
2022-10-25T08:16:50.549Z,101053.94
2022-10-25T08:19:52.115Z,101054.56
2022-10-25T08:22:58.189Z,101052.63
2022-10-25T08:26:00.987Z,101062.34
2022-10-25T08:29:02.528Z,101064.06
2022-10-25T08:32:04.355Z,101068.44
2022-10-25T08:35:06.125Z,101073.81
2022-10-25T08:38:07.680Z,101071.22
2022-10-25T08:41:25.673Z,101072.81
2022-10-25T08:44:38.010Z,101074.53
2022-10-25T08:47:43.379Z,101076.34
2022-10-25T08:50:49.631Z,101079.03
2022-10-25T08:57:24.923Z,101082.06
2022-10-25T09:00:36.088Z,101086.13
2022-10-25T09:07:07.315Z,101092.59
2022-10-25T09:10:11.572Z,101095.06
2022-10-25T09:13:19.269Z,101100.19
2022-10-25T09:16:32.828Z,101116.75
2022-10-25T09:19:39.014Z,101107.75
2022-10-25T09:22:49.396Z,101118.34
2022-10-25T09:26:02.114Z,101122.84
2022-10-25T09:29:24.448Z,101128.19
2022-10-25T09:32:34.700Z,101140.63
2022-10-25T09:35:53.788Z,101142.44
2022-10-25T09:39:02.293Z,101140.75
2022-10-25T09:42:07.773Z,101145.34
2022-10-25T09:45:26.566Z,101154.22
2022-10-25T09:48:37.252Z,101157.03
2022-10-25T09:52:00.104Z,101150.59
2022-10-25T09:55:23.161Z,101161.06
2022-10-25T09:58:27.436Z,101161.59
2022-10-25T10:01:29.562Z,101157.34
2022-10-25T10:04:39.111Z,101154.78
2022-10-25T10:07:41.389Z,101168.81
2022-10-25T10:10:43.644Z,101168.69
2022-10-25T10:13:50.796Z,101176.72
2022-10-25T10:16:56.465Z,101184.75
2022-10-25T10:20:17.444Z,101181.84
2022-10-25T10:23:19.040Z,101180.53
2022-10-25T10:26:23.406Z,101183.81
2022-10-25T10:29:28.030Z,101193.44
2022-10-25T10:32:34.052Z,101189.66
2022-10-25T10:35:38.787Z,101188.72
2022-10-25T10:38:40.397Z,101181.19
2022-10-25T10:42:03.206Z,101175.94
2022-10-25T10:45:12.224Z,101186.19
2022-10-25T10:48:21.188Z,101185.94
2022-10-25T10:51:45.520Z,101189.09
2022-10-25T10:54:50.719Z,101196.91
2022-10-25T10:57:54.389Z,101200.34
2022-10-25T11:00:57.411Z,101187.91
2022-10-25T11:04:00.932Z,101183.38
2022-10-25T11:07:27.878Z,101196.59
2022-10-25T11:10:32.814Z,101195.59
2022-10-25T11:13:34.449Z,101195.50
2022-10-25T11:17:09.652Z,101201.34
2022-10-25T11:20:17.152Z,101208.41
2022-10-25T11:23:24.530Z,101208.03
2022-10-25T11:26:47.705Z,101210.09
2022-10-25T11:30:31.756Z,101210.19
2022-10-25T11:33:45.117Z,101208.84
2022-10-25T11:37:08.500Z,101212.63
2022-10-25T11:40:20.268Z,101222.00
2022-10-25T11:43:39.810Z,101224.59
2022-10-25T11:46:44.458Z,101224.84
2022-10-25T11:50:23.528Z,101220.91
2022-10-25T11:53:30.921Z,101236.53
2022-10-25T11:56:47.768Z,101230.06
2022-10-25T12:00:15.009Z,101230.59
2022-10-25T12:03:25.781Z,101232.75
2022-10-25T12:06:52.052Z,101232.75
2022-10-25T12:10:05.590Z,101236.44
2022-10-25T12:13:31.403Z,101241.19
2022-10-25T12:16:36.427Z,101240.22
2022-10-25T12:19:45.500Z,101234.84
2022-10-25T12:22:50.591Z,101244.34
2022-10-25T12:25:58.477Z,101232.84
2022-10-25T12:29:04.299Z,101250.19
2022-10-25T12:32:44.586Z,101239.84
2022-10-25T12:35:54.266Z,101241.75
2022-10-25T12:39:00.168Z,101241.84
2022-10-25T12:42:06.126Z,101242.66
2022-10-25T12:45:19.835Z,101248.50
2022-10-25T12:49:08.416Z,101250.09
2022-10-25T12:52:29.263Z,101252.38
2022-10-25T12:55:53.168Z,101244.91
2022-10-25T12:59:03.756Z,101247.59
2022-10-25T13:02:27.196Z,101252.84
2022-10-25T13:05:41.711Z,101261.03
2022-10-25T13:08:44.251Z,101258.47
2022-10-25T13:12:01.150Z,101264.25
2022-10-25T13:15:03.748Z,101254.84
2022-10-25T13:18:24.336Z,101259.91
2022-10-25T13:21:53.740Z,101255.03
2022-10-25T13:24:56.557Z,101266.16
2022-10-25T13:28:16.943Z,101260.91
2022-10-25T13:31:33.706Z,101275.56
2022-10-25T13:34:36.268Z,101261.66
2022-10-25T13:37:41.149Z,101271.66
2022-10-25T13:40:42.727Z,101269.94
2022-10-25T13:44:02.525Z,101262.88
2022-10-25T13:47:04.479Z,101263.22
2022-10-25T13:50:18.159Z,101274.69
2022-10-25T13:53:22.432Z,101268.50
2022-10-25T13:56:23.954Z,101267.75
2022-10-25T13:59:54.403Z,101268.03
2022-10-25T14:03:02.861Z,101268.84
2022-10-25T14:06:09.661Z,101270.44
2022-10-25T14:09:40.102Z,101272.16
2022-10-25T14:12:45.592Z,101272.88
2022-10-25T14:16:16.724Z,101279.44
2022-10-25T14:19:21.127Z,101275.25
2022-10-25T14:22:43.226Z,101274.28
2022-10-25T14:25:55.648Z,101285.56
2022-10-25T14:29:14.273Z,101278.97
2022-10-25T14:32:21.924Z,101277.03
2022-10-25T14:35:26.543Z,101275.69
2022-10-25T14:38:28.275Z,101270.56
2022-10-25T14:41:35.605Z,101270.91
2022-10-25T14:44:50.778Z,101272.28
2022-10-25T14:47:53.332Z,101279.72
2022-10-25T14:50:57.572Z,101272.78
2022-10-25T14:54:10.186Z,101274.75
2022-10-25T14:57:11.916Z,101275.13
2022-10-25T15:00:19.370Z,101272.53
2022-10-25T15:03:21.507Z,101272.66
2022-10-25T15:06:29.829Z,101272.91
2022-10-25T15:09:47.156Z,101275.84
2022-10-25T15:12:51.369Z,101279.75
2022-10-25T15:15:53.430Z,101279.97
2022-10-25T15:19:18.397Z,101270.34
2022-10-25T15:22:20.681Z,101270.59
2022-10-25T15:25:22.130Z,101269.00
2022-10-25T15:28:23.739Z,101278.16
2022-10-25T15:31:30.295Z,101282.78
2022-10-25T15:34:32.892Z,101279.59
2022-10-25T15:37:34.974Z,101280.84
2022-10-25T15:40:38.342Z,101280.22
2022-10-25T15:43:39.951Z,101283.13
2022-10-25T15:46:41.661Z,101284.25
2022-10-25T15:49:43.231Z,101279.13
2022-10-25T15:52:45.452Z,101284.59
2022-10-25T15:55:48.644Z,101283.00
2022-10-25T15:58:51.312Z,101279.72
2022-10-25T16:01:55.180Z,101284.34
2022-10-25T16:04:56.853Z,101290.91
2022-10-25T16:07:58.512Z,101288.47
2022-10-25T16:11:00.285Z,101290.41
2022-10-25T16:14:03.929Z,101292.56
2022-10-25T16:17:05.608Z,101294.72
2022-10-25T16:20:36.327Z,101303.25
2022-10-25T16:23:37.992Z,101301.16
2022-10-25T16:26:43.071Z,101310.38
2022-10-25T16:29:44.584Z,101315.16
2022-10-25T16:32:46.611Z,101312.69
2022-10-25T16:35:48.401Z,101314.63
2022-10-25T16:38:49.944Z,101319.34
2022-10-25T16:41:52.615Z,101320.34
2022-10-25T16:44:54.132Z,101322.38
2022-10-25T16:47:57.497Z,101325.94
2022-10-25T16:50:59.101Z,101327.75
2022-10-25T16:54:01.347Z,101327.75
2022-10-25T16:57:02.901Z,101333.09
2022-10-25T17:00:05.107Z,101334.81
2022-10-25T17:03:06.821Z,101331.28
2022-10-25T17:06:22.255Z,101338.38
2022-10-25T17:09:29.844Z,101328.72
2022-10-25T17:12:31.419Z,101334.09
2022-10-25T17:15:33.013Z,101334.91
2022-10-25T17:18:35.617Z,101322.38
2022-10-25T17:21:37.447Z,101326.88
2022-10-25T17:24:39.041Z,101330.56
2022-10-25T17:27:45.284Z,101325.41
2022-10-25T17:30:47.285Z,101327.44
2022-10-25T17:33:48.845Z,101334.75
2022-10-25T17:39:58.590Z,101326.94
2022-10-25T17:43:00.121Z,101333.28
2022-10-25T17:46:08.253Z,101337.91
2022-10-25T17:49:09.802Z,101341.88
2022-10-25T17:52:11.368Z,101343.91
2022-10-25T17:55:12.971Z,101345.13
2022-10-25T17:58:14.528Z,101348.03
2022-10-25T18:01:19.037Z,101350.09
2022-10-25T18:04:20.840Z,101344.09
2022-10-25T18:07:22.372Z,101342.69
2022-10-25T18:10:23.944Z,101350.00
2022-10-25T18:13:27.047Z,101358.41
2022-10-25T18:16:30.943Z,101364.13
2022-10-25T18:19:32.895Z,101355.47
2022-10-25T18:22:34.434Z,101363.72
2022-10-25T18:25:36.551Z,101356.75
2022-10-25T18:28:38.337Z,101363.19
2022-10-25T18:31:40.135Z,101362.44
2022-10-25T18:34:41.678Z,101362.66
2022-10-25T18:37:43.213Z,101376.16
2022-10-25T18:40:44.739Z,101364.59
2022-10-25T18:43:47.087Z,101365.53
2022-10-25T18:46:48.672Z,101357.72
2022-10-25T18:49:50.208Z,101357.63
2022-10-25T18:52:51.780Z,101352.50
2022-10-25T18:55:53.362Z,101359.56
2022-10-25T18:58:56.788Z,101359.56
2022-10-25T19:01:58.539Z,101356.97
2022-10-25T19:05:00.407Z,101363.41
2022-10-25T19:08:02.007Z,101350.16
2022-10-25T19:11:12.146Z,101359.13
2022-10-25T19:14:13.724Z,101359.25
2022-10-25T19:17:15.251Z,101351.31
2022-10-25T19:20:16.897Z,101359.47
2022-10-25T19:23:18.767Z,101357.72
2022-10-25T19:26:22.758Z,101350.91
2022-10-25T19:29:24.354Z,101358.91
2022-10-25T19:32:25.994Z,101355.38
2022-10-25T19:35:27.560Z,101355.38
2022-10-25T19:38:29.177Z,101364.28
2022-10-25T19:41:30.888Z,101348.22
2022-10-25T19:44:32.434Z,101344.81
2022-10-25T19:47:35.804Z,101351.97
2022-10-25T19:50:38.790Z,101349.50
2022-10-25T19:53:40.664Z,101348.75
2022-10-25T19:56:42.232Z,101349.75
2022-10-25T19:59:43.883Z,101351.56
2022-10-25T20:02:45.412Z,101357.00
2022-10-25T20:05:46.937Z,101355.31
2022-10-25T20:08:48.772Z,101361.81
2022-10-25T20:11:50.325Z,101367.28
2022-10-25T20:14:51.896Z,101363.84
2022-10-25T20:17:53.417Z,101363.13
2022-10-25T20:21:04.806Z,101365.00
2022-10-25T20:24:09.307Z,101362.56
2022-10-25T20:27:10.850Z,101369.94
2022-10-25T20:30:12.434Z,101364.03
2022-10-25T20:33:14.073Z,101373.25
2022-10-25T20:36:15.937Z,101384.16
2022-10-25T20:39:17.713Z,101379.13
2022-10-25T20:42:19.525Z,101379.44
2022-10-25T20:45:21.063Z,101375.97
2022-10-25T20:48:22.568Z,101375.31
2022-10-25T20:51:24.200Z,101378.31
2022-10-25T20:54:25.750Z,101378.50
2022-10-25T20:57:27.288Z,101382.25
2022-10-25T21:00:28.929Z,101387.03
2022-10-25T21:03:31.644Z,101383.69
2022-10-25T21:06:33.157Z,101389.47
2022-10-25T21:09:34.696Z,101395.13
2022-10-25T21:12:36.208Z,101386.56
2022-10-25T21:15:37.855Z,101388.56
2022-10-25T21:18:40.112Z,101388.75
2022-10-25T21:21:41.937Z,101384.59
2022-10-25T21:24:43.437Z,101387.13
2022-10-25T21:27:45.185Z,101394.09
2022-10-25T21:30:47.012Z,101394.44
2022-10-25T21:33:50.224Z,101398.81
2022-10-25T21:36:53.234Z,101397.09
2022-10-25T21:39:54.781Z,101405.13
2022-10-25T21:42:57.710Z,101395.59
2022-10-25T21:45:59.260Z,101392.19
2022-10-25T21:49:00.875Z,101393.00
2022-10-25T21:52:02.397Z,101394.88
2022-10-25T21:55:04.266Z,101392.72
2022-10-25T21:58:05.792Z,101387.63
2022-10-25T22:01:15.934Z,101391.28
2022-10-25T22:04:17.587Z,101392.22
2022-10-25T22:07:19.120Z,101391.38
2022-10-25T22:10:20.616Z,101398.63
2022-10-25T22:13:22.141Z,101401.59
2022-10-25T22:16:24.549Z,101394.81
2022-10-25T22:19:26.107Z,101395.22
2022-10-25T22:22:27.736Z,101389.19
2022-10-25T22:25:29.237Z,101389.50
2022-10-25T22:28:33.308Z,101387.25
2022-10-25T22:31:36.993Z,101391.25
2022-10-25T22:34:38.518Z,101384.56
2022-10-25T22:37:40.096Z,101380.59
2022-10-25T22:40:41.776Z,101373.81
2022-10-25T22:43:44.824Z,101380.44
2022-10-25T22:46:46.380Z,101376.19
2022-10-25T22:49:47.934Z,101389.94
2022-10-25T22:52:49.492Z,101384.22
2022-10-25T22:56:00.522Z,101379.34
2022-10-25T22:59:04.495Z,101378.03
2022-10-25T23:02:06.053Z,101383.81
2022-10-25T23:05:08.042Z,101378.84
2022-10-25T23:08:09.592Z,101379.31
2022-10-25T23:11:20.245Z,101376.94
2022-10-25T23:14:21.807Z,101372.94
2022-10-25T23:17:23.345Z,101376.00
2022-10-25T23:20:24.856Z,101376.34
2022-10-25T23:23:28.432Z,101378.44
2022-10-25T23:26:32.487Z,101379.59
2022-10-25T23:29:34.085Z,101382.59
2022-10-25T23:32:35.661Z,101381.94
2022-10-25T23:35:38.761Z,101379.53
2022-10-25T23:38:40.351Z,101371.81
2022-10-25T23:41:41.945Z,101369.53
2022-10-25T23:44:43.460Z,101371.63
2022-10-25T23:47:44.989Z,101370.09
2022-10-25T23:50:46.649Z,101371.13
2022-10-25T23:53:48.833Z,101375.97
2022-10-25T23:56:50.404Z,101370.06
2022-10-25T23:59:51.946Z,101365.94
